createdAt,value
2023-02-09T00:00:01.626Z,1.04
2023-02-09T00:00:59.001Z,1.09
2023-02-09T00:01:59.032Z,0.96
2023-02-09T00:02:59.002Z,1.09
2023-02-09T00:03:59.070Z,1.06
2023-02-09T00:04:58.975Z,1.02
2023-02-09T00:05:58.963Z,1.12
2023-02-09T00:07:00.588Z,1.05
2023-02-09T00:07:58.930Z,1.11
2023-02-09T00:08:58.942Z,1.05
2023-02-09T00:09:58.924Z,1.04
2023-02-09T00:10:58.907Z,1.08
2023-02-09T00:11:58.906Z,1.08
2023-02-09T00:12:58.885Z,1.08
2023-02-09T00:13:58.864Z,1.06
2023-02-09T00:14:58.861Z,1.06
2023-02-09T00:15:58.892Z,1.05
2023-02-09T00:16:58.853Z,1.00
2023-02-09T00:17:58.936Z,1.04
2023-02-09T00:18:58.816Z,0.98
2023-02-09T00:19:58.807Z,0.96
2023-02-09T00:20:58.801Z,0.94
2023-02-09T00:21:58.817Z,0.98
2023-02-09T00:22:58.774Z,0.96
2023-02-09T00:23:58.783Z,0.90
2023-02-09T00:24:58.753Z,0.94
2023-02-09T00:25:58.742Z,0.94
2023-02-09T00:26:58.743Z,0.97
2023-02-09T00:27:58.816Z,0.93
2023-02-09T00:28:58.740Z,0.88
2023-02-09T00:29:58.698Z,0.91
2023-02-09T00:30:58.742Z,0.94
2023-02-09T00:31:58.736Z,0.97
2023-02-09T00:32:58.680Z,0.96
2023-02-09T00:33:58.672Z,0.87
2023-02-09T00:34:58.672Z,0.88
2023-02-09T00:35:58.808Z,0.86
2023-02-09T00:36:58.625Z,0.84
2023-02-09T00:37:58.609Z,0.88
2023-02-09T00:38:58.607Z,0.93
2023-02-09T00:39:58.604Z,0.84
2023-02-09T00:40:58.600Z,0.87
2023-02-09T00:41:58.585Z,0.91
2023-02-09T00:42:58.565Z,0.83
2023-02-09T00:43:58.546Z,0.96
2023-02-09T00:44:58.543Z,0.86
2023-02-09T00:45:58.671Z,0.83
2023-02-09T00:46:58.559Z,0.80
2023-02-09T00:47:58.520Z,0.86
2023-02-09T00:48:58.505Z,0.73
2023-02-09T00:49:58.520Z,0.73
2023-02-09T00:50:58.477Z,0.78
2023-02-09T00:51:58.482Z,0.84
2023-02-09T00:52:58.473Z,0.75
2023-02-09T00:53:58.449Z,0.78
2023-02-09T00:54:58.462Z,0.73
2023-02-09T00:55:58.428Z,0.78
2023-02-09T00:56:58.419Z,0.68
2023-02-09T00:57:58.403Z,0.69
2023-02-09T00:58:58.450Z,0.78
2023-02-09T00:59:58.382Z,0.68
2023-02-09T01:00:58.382Z,0.78
2023-02-09T01:01:58.404Z,0.69
2023-02-09T01:02:58.355Z,0.68
2023-02-09T01:03:58.349Z,0.68
2023-02-09T01:04:58.375Z,0.66
2023-02-09T01:05:58.341Z,0.79
2023-02-09T01:06:58.309Z,0.69
2023-02-09T01:07:58.323Z,0.68
2023-02-09T01:08:58.293Z,0.62
2023-02-09T01:09:58.277Z,0.68
2023-02-09T01:10:58.321Z,0.69
2023-02-09T01:11:58.254Z,0.66
2023-02-09T01:12:58.251Z,0.70
2023-02-09T01:13:58.264Z,0.68
2023-02-09T01:14:58.222Z,0.68
2023-02-09T01:15:58.208Z,0.65
2023-02-09T01:16:58.304Z,0.61
2023-02-09T01:17:58.188Z,0.69
2023-02-09T01:18:58.192Z,0.69
2023-02-09T01:19:58.167Z,0.69
2023-02-09T01:20:58.172Z,0.78
2023-02-09T01:21:58.174Z,0.62
2023-02-09T01:22:58.177Z,0.66
2023-02-09T01:23:58.124Z,0.65
2023-02-09T01:24:58.135Z,0.62
2023-02-09T01:25:58.097Z,0.78
2023-02-09T01:26:58.095Z,0.66
2023-02-09T01:27:58.149Z,0.62
2023-02-09T01:28:58.106Z,0.69
2023-02-09T01:29:58.056Z,0.61
2023-02-09T01:30:58.197Z,0.72
2023-02-09T01:31:58.099Z,0.68
2023-02-09T01:32:58.028Z,0.69
2023-02-09T01:33:58.029Z,0.62
2023-02-09T01:34:58.022Z,0.58
2023-02-09T01:35:58.001Z,0.62
2023-02-09T01:36:57.998Z,0.62
2023-02-09T01:37:57.988Z,0.60
2023-02-09T01:38:57.972Z,0.61
2023-02-09T01:39:57.963Z,0.57
2023-02-09T01:40:57.970Z,0.55
2023-02-09T01:41:57.938Z,0.57
2023-02-09T01:42:57.935Z,0.58
2023-02-09T01:43:57.915Z,0.60
2023-02-09T01:44:57.904Z,0.60
2023-02-09T01:45:57.925Z,0.53
2023-02-09T01:46:57.912Z,0.57
2023-02-09T01:47:57.888Z,0.51
2023-02-09T01:48:57.867Z,0.51
2023-02-09T01:49:57.849Z,0.65
2023-02-09T01:50:57.861Z,0.73
2023-02-09T01:51:57.827Z,0.58
2023-02-09T01:52:57.871Z,0.58
2023-02-09T01:53:57.831Z,0.53
2023-02-09T01:54:57.796Z,0.58
2023-02-09T01:55:57.802Z,0.60
2023-02-09T01:56:57.773Z,0.55
2023-02-09T01:57:57.754Z,0.50
2023-02-09T01:58:57.785Z,0.57
2023-02-09T01:59:57.759Z,0.58
2023-02-09T02:00:59.899Z,0.49
2023-02-09T02:01:57.716Z,0.57
2023-02-09T02:02:57.717Z,0.51
2023-02-09T02:03:57.695Z,0.61
2023-02-09T02:04:57.736Z,0.53
2023-02-09T02:05:57.670Z,0.49
2023-02-09T02:06:57.671Z,0.47
2023-02-09T02:07:57.661Z,0.47
2023-02-09T02:08:57.679Z,0.57
2023-02-09T02:09:57.646Z,0.42
2023-02-09T02:10:57.640Z,0.46
2023-02-09T02:11:57.629Z,0.42
2023-02-09T02:12:57.614Z,0.49
2023-02-09T02:13:57.588Z,0.65
2023-02-09T02:14:57.576Z,0.57
2023-02-09T02:15:57.592Z,0.51
2023-02-09T02:16:57.574Z,0.51
2023-02-09T02:17:57.554Z,0.55
2023-02-09T02:18:57.532Z,0.55
2023-02-09T02:19:57.516Z,0.65
2023-02-09T02:20:57.510Z,0.55
2023-02-09T02:21:57.507Z,0.44
2023-02-09T02:22:57.506Z,0.61
2023-02-09T02:23:57.489Z,0.60
2023-02-09T02:24:57.474Z,0.51
2023-02-09T02:25:57.472Z,0.58
2023-02-09T02:26:57.474Z,0.42
2023-02-09T02:27:57.499Z,0.50
2023-02-09T02:28:57.446Z,0.58
2023-02-09T02:29:57.427Z,0.49
2023-02-09T02:30:57.605Z,0.61
2023-02-09T02:31:57.416Z,0.50
2023-02-09T02:32:57.381Z,0.57
2023-02-09T02:33:57.365Z,0.44
2023-02-09T02:34:57.378Z,0.49
2023-02-09T02:35:57.342Z,0.44
2023-02-09T02:36:57.348Z,0.61
2023-02-09T02:37:57.323Z,0.49
2023-02-09T02:38:57.314Z,0.51
2023-02-09T02:39:57.303Z,0.51
2023-02-09T02:40:57.354Z,0.50
2023-02-09T02:41:57.297Z,0.50
2023-02-09T02:42:57.268Z,0.51
2023-02-09T02:43:57.260Z,0.47
2023-02-09T02:44:57.264Z,0.47
2023-02-09T02:45:57.304Z,0.46
2023-02-09T02:46:57.252Z,0.46
2023-02-09T02:47:57.222Z,0.47
2023-02-09T02:48:57.226Z,0.49
2023-02-09T02:49:57.196Z,0.47
2023-02-09T02:50:57.234Z,0.36
2023-02-09T02:51:57.177Z,0.38
2023-02-09T02:52:57.211Z,0.39
2023-02-09T02:53:57.155Z,0.39
2023-02-09T02:54:57.150Z,0.46
2023-02-09T02:55:57.137Z,0.36
2023-02-09T02:56:57.143Z,0.33
2023-02-09T02:57:57.150Z,0.35
2023-02-09T02:58:57.128Z,0.33
2023-02-09T02:59:57.112Z,0.29
2023-02-09T03:00:57.084Z,0.29
2023-02-09T03:01:57.118Z,0.24
2023-02-09T03:02:57.087Z,0.23
2023-02-09T03:03:57.052Z,0.29
2023-02-09T03:04:57.088Z,0.31
2023-02-09T03:05:57.040Z,0.15
2023-02-09T03:06:57.030Z,0.20
2023-02-09T03:07:57.010Z,0.23
2023-02-09T03:08:56.999Z,0.28
2023-02-09T03:09:56.996Z,0.18
2023-02-09T03:10:57.022Z,0.26
2023-02-09T03:11:56.982Z,0.26
2023-02-09T03:12:56.973Z,0.15
2023-02-09T03:13:56.976Z,0.29
2023-02-09T03:19:38.111Z,0.26
2023-02-09T03:20:38.141Z,0.26
2023-02-09T03:21:38.120Z,0.20
2023-02-09T03:22:38.084Z,0.13
2023-02-09T03:23:38.078Z,0.17
2023-02-09T03:24:38.084Z,0.26
2023-02-09T03:25:38.069Z,0.20
2023-02-09T03:26:38.034Z,0.18
2023-02-09T03:27:38.025Z,0.18
2023-02-09T03:28:38.015Z,0.17
2023-02-09T03:29:38.044Z,0.15
2023-02-09T03:30:38.052Z,0.15
2023-02-09T03:31:37.994Z,0.11
2023-02-09T03:32:37.977Z,0.13
2023-02-09T03:33:37.992Z,0.07
2023-02-09T03:34:37.955Z,0.07
2023-02-09T03:35:37.958Z,-0.03
2023-02-09T03:36:37.930Z,-0.01
2023-02-09T03:37:37.936Z,-0.14
2023-02-09T03:38:37.909Z,-0.08
2023-02-09T03:39:37.925Z,-0.15
2023-02-09T03:40:37.894Z,-0.10
2023-02-09T03:41:37.934Z,-0.05
2023-02-09T03:42:37.870Z,-0.05
2023-02-09T03:43:37.855Z,-0.25
2023-02-09T03:44:37.842Z,-0.16
2023-02-09T03:45:37.864Z,-0.04
2023-02-09T03:46:37.895Z,-0.10
2023-02-09T03:47:37.827Z,-0.11
2023-02-09T03:48:37.819Z,-0.10
2023-02-09T03:49:37.796Z,-0.14
2023-02-09T03:50:37.781Z,-0.16
2023-02-09T03:51:37.766Z,0.00
2023-02-09T03:52:37.760Z,-0.03
2023-02-09T03:53:37.760Z,-0.10
2023-02-09T03:54:37.753Z,-0.14
2023-02-09T03:55:37.722Z,-0.15
2023-02-09T03:56:37.741Z,-0.16
2023-02-09T03:57:37.702Z,-0.19
2023-02-09T03:58:37.698Z,-0.29
2023-02-09T03:59:37.780Z,-0.34
2023-02-09T04:00:37.722Z,-0.34
2023-02-09T04:01:37.801Z,-0.28
2023-02-09T04:02:37.773Z,-0.26
2023-02-09T04:03:37.647Z,-0.34
2023-02-09T04:04:37.636Z,-0.31
2023-02-09T04:05:37.648Z,-0.23
2023-02-09T04:06:37.608Z,-0.28
2023-02-09T04:07:37.593Z,-0.29
2023-02-09T04:08:37.607Z,-0.25
2023-02-09T04:09:37.607Z,-0.28
2023-02-09T04:10:37.565Z,-0.28
2023-02-09T04:11:37.569Z,-0.28
2023-02-09T04:12:37.549Z,-0.19
2023-02-09T04:13:37.602Z,-0.23
2023-02-09T04:14:37.522Z,-0.22
2023-02-09T04:15:37.510Z,-0.28
2023-02-09T04:16:37.568Z,-0.31
2023-02-09T04:17:37.527Z,-0.22
2023-02-09T04:18:37.476Z,-0.26
2023-02-09T04:19:37.464Z,-0.23
2023-02-09T04:20:37.457Z,-0.25
2023-02-09T04:21:37.443Z,-0.26
2023-02-09T04:22:37.433Z,-0.19
2023-02-09T04:23:37.458Z,-0.29
2023-02-09T04:24:37.414Z,-0.18
2023-02-09T04:25:37.399Z,-0.22
2023-02-09T04:26:37.392Z,-0.23
2023-02-09T04:27:37.380Z,-0.23
2023-02-09T04:28:37.373Z,-0.25
2023-02-09T04:29:37.399Z,-0.18
2023-02-09T04:30:37.422Z,-0.14
2023-02-09T04:31:37.365Z,-0.29
2023-02-09T04:32:37.338Z,-0.23
2023-02-09T04:33:37.339Z,-0.26
2023-02-09T04:34:37.315Z,-0.31
2023-02-09T04:35:37.340Z,-0.22
2023-02-09T04:36:37.295Z,-0.25
2023-02-09T04:37:37.296Z,-0.36
2023-02-09T04:38:37.273Z,-0.31
2023-02-09T04:39:37.272Z,-0.36
2023-02-09T04:40:37.251Z,-0.33
2023-02-09T04:41:37.262Z,-0.26
2023-02-09T04:42:37.227Z,-0.25
2023-02-09T04:43:37.237Z,-0.23
2023-02-09T04:44:37.209Z,-0.39
2023-02-09T04:45:37.259Z,-0.29
2023-02-09T04:46:37.185Z,-0.28
2023-02-09T04:47:37.195Z,-0.34
2023-02-09T04:48:37.164Z,-0.39
2023-02-09T04:49:37.186Z,-0.31
2023-02-09T04:50:37.155Z,-0.31
2023-02-09T04:51:37.156Z,-0.37
2023-02-09T04:52:37.133Z,-0.43
2023-02-09T04:53:37.130Z,-0.44
2023-02-09T04:54:37.117Z,-0.42
2023-02-09T04:55:37.091Z,-0.52
2023-02-09T04:56:38.695Z,-0.58
2023-02-09T04:57:37.069Z,-0.47
2023-02-09T04:58:37.077Z,-0.54
2023-02-09T04:59:37.072Z,-0.57
2023-02-09T05:00:37.062Z,-0.57
2023-02-09T05:01:37.045Z,-0.55
2023-02-09T05:02:37.019Z,-0.49
2023-02-09T05:03:37.027Z,-0.52
2023-02-09T05:04:37.017Z,-0.47
2023-02-09T05:05:37.013Z,-0.51
2023-02-09T05:06:36.982Z,-0.47
2023-02-09T05:07:36.966Z,-0.52
2023-02-09T05:08:36.958Z,-0.49
2023-02-09T05:09:36.963Z,-0.39
2023-02-09T05:10:36.953Z,-0.39
2023-02-09T05:11:36.956Z,-0.52
2023-02-09T05:12:36.929Z,-0.37
2023-02-09T05:13:36.902Z,-0.49
2023-02-09T05:14:36.901Z,-0.49
2023-02-09T05:15:36.885Z,-0.58
2023-02-09T05:16:39.135Z,-0.60
2023-02-09T05:17:36.895Z,-0.58
2023-02-09T05:18:36.858Z,-0.55
2023-02-09T05:19:36.851Z,-0.54
2023-02-09T05:20:36.832Z,-0.57
2023-02-09T05:21:36.855Z,-0.64
2023-02-09T05:22:36.819Z,-0.62
2023-02-09T05:23:36.848Z,-0.69
2023-02-09T05:24:36.793Z,-0.70
2023-02-09T05:25:36.804Z,-0.80
2023-02-09T05:26:36.773Z,-0.94
2023-02-09T05:27:36.810Z,-0.94
2023-02-09T05:28:36.761Z,-0.94
2023-02-09T05:29:36.783Z,-0.99
2023-02-09T05:30:36.743Z,-0.99
2023-02-09T05:31:36.846Z,-0.95
2023-02-09T05:32:36.725Z,-0.98
2023-02-09T05:33:36.706Z,-0.94
2023-02-09T05:34:36.692Z,-1.02
2023-02-09T05:35:36.695Z,-1.02
2023-02-09T05:36:36.692Z,-0.94
2023-02-09T05:37:36.671Z,-1.05
2023-02-09T05:38:36.678Z,-1.05
2023-02-09T05:39:36.631Z,-0.92
2023-02-09T05:40:36.640Z,-0.94
2023-02-09T05:41:36.632Z,-1.05
2023-02-09T05:42:36.601Z,-0.94
2023-02-09T05:43:36.586Z,-1.07
2023-02-09T05:44:36.606Z,-1.15
2023-02-09T05:45:36.623Z,-1.07
2023-02-09T05:46:36.560Z,-1.10
2023-02-09T05:47:36.569Z,-1.07
2023-02-09T05:48:36.580Z,-1.09
2023-02-09T05:49:36.529Z,-1.10
2023-02-09T05:50:36.540Z,-1.05
2023-02-09T05:51:36.513Z,-1.13
2023-02-09T05:52:36.509Z,-1.23
2023-02-09T05:53:36.513Z,-1.16
2023-02-09T05:54:36.494Z,-1.15
2023-02-09T05:55:36.480Z,-1.13
2023-02-09T05:56:36.456Z,-1.22
2023-02-09T05:57:36.464Z,-1.16
2023-02-09T05:58:36.455Z,-1.12
2023-02-09T05:59:36.416Z,-1.19
2023-02-09T06:00:36.403Z,-1.25
2023-02-09T06:01:36.407Z,-1.20
2023-02-09T06:02:36.408Z,-1.15
2023-02-09T06:03:36.498Z,-1.09
2023-02-09T06:04:36.399Z,-1.15
2023-02-09T06:05:36.370Z,-1.09
2023-02-09T06:06:36.381Z,-1.07
2023-02-09T06:07:36.337Z,-1.05
2023-02-09T06:08:36.332Z,-1.13
2023-02-09T06:09:36.331Z,-1.07
2023-02-09T06:10:36.314Z,-1.13
2023-02-09T06:11:36.293Z,-1.31
2023-02-09T06:12:36.282Z,-1.28
2023-02-09T06:13:36.300Z,-1.23
2023-02-09T06:14:36.255Z,-1.28
2023-02-09T06:15:36.324Z,-1.25
2023-02-09T06:16:36.249Z,-1.30
2023-02-09T06:17:36.239Z,-1.30
2023-02-09T06:18:36.226Z,-1.25
2023-02-09T06:19:36.203Z,-1.23
2023-02-09T06:20:36.193Z,-1.19
2023-02-09T06:21:36.205Z,-1.25
2023-02-09T06:22:36.184Z,-1.27
2023-02-09T06:23:36.165Z,-1.27
2023-02-09T06:24:36.155Z,-1.25
2023-02-09T06:25:36.178Z,-1.25
2023-02-09T06:26:36.134Z,-1.30
2023-02-09T06:27:36.150Z,-1.25
2023-02-09T06:28:36.135Z,-1.28
2023-02-09T06:29:36.106Z,-1.33
2023-02-09T06:30:36.084Z,-1.27
2023-02-09T06:31:36.234Z,-1.35
2023-02-09T06:32:36.072Z,-1.27
2023-02-09T06:33:36.078Z,-1.27
2023-02-09T06:34:36.086Z,-1.25
2023-02-09T06:35:36.068Z,-1.30
2023-02-09T06:36:36.030Z,-1.23
2023-02-09T06:37:36.025Z,-1.31
2023-02-09T06:38:36.025Z,-1.31
2023-02-09T06:39:36.028Z,-1.31
2023-02-09T06:40:36.001Z,-1.28
2023-02-09T06:41:36.005Z,-1.27
2023-02-09T06:42:35.998Z,-1.34
2023-02-09T06:43:35.980Z,-1.33
2023-02-09T06:44:35.946Z,-1.33
2023-02-09T06:45:35.947Z,-1.33
2023-02-09T06:46:35.997Z,-1.34
2023-02-09T06:47:35.982Z,-1.35
2023-02-09T06:48:35.900Z,-1.25
2023-02-09T06:49:35.913Z,-1.28
2023-02-09T06:50:35.901Z,-1.27
2023-02-09T06:51:35.892Z,-1.20
2023-02-09T06:52:35.860Z,-1.19
2023-02-09T06:53:35.861Z,-1.28
2023-02-09T06:54:35.832Z,-1.23
2023-02-09T06:55:35.823Z,-1.35
2023-02-09T06:56:35.833Z,-1.23
2023-02-09T06:57:35.842Z,-1.31
2023-02-09T06:58:35.795Z,-1.38
2023-02-09T06:59:35.816Z,-1.38
2023-02-09T07:00:35.769Z,-1.25
2023-02-09T07:01:35.838Z,-1.30
2023-02-09T07:02:35.820Z,-1.30
2023-02-09T07:03:35.752Z,-1.30
2023-02-09T07:04:35.729Z,-1.33
2023-02-09T07:05:35.798Z,-1.34
2023-02-09T07:06:35.731Z,-1.40
2023-02-09T07:07:35.708Z,-1.34
2023-02-09T07:08:35.701Z,-1.37
2023-02-09T07:09:35.704Z,-1.31
2023-02-09T07:10:35.676Z,-1.37
2023-02-09T07:11:35.674Z,-1.37
2023-02-09T07:12:35.649Z,-1.37
2023-02-09T07:13:35.684Z,-1.38
2023-02-09T07:14:35.618Z,-1.41
2023-02-09T07:15:35.659Z,-1.37
2023-02-09T07:16:35.599Z,-1.34
2023-02-09T07:17:35.631Z,-1.34
2023-02-09T07:18:35.575Z,-1.27
2023-02-09T07:19:35.572Z,-1.31
2023-02-09T07:20:35.574Z,-1.34
2023-02-09T07:21:35.555Z,-1.27
2023-02-09T07:22:35.541Z,-1.23
2023-02-09T07:23:35.548Z,-1.37
2023-02-09T07:24:35.534Z,-1.28
2023-02-09T07:25:35.511Z,-1.23
2023-02-09T07:26:35.506Z,-1.34
2023-02-09T07:27:35.486Z,-1.35
2023-02-09T07:28:35.565Z,-1.34
2023-02-09T07:29:35.505Z,-1.38
2023-02-09T07:30:35.520Z,-1.27
2023-02-09T07:31:35.638Z,-1.22
2023-02-09T07:32:35.444Z,-1.28
2023-02-09T07:33:35.439Z,-1.33
2023-02-09T07:34:35.408Z,-1.43
2023-02-09T07:35:35.414Z,-1.25
2023-02-09T07:36:35.390Z,-1.31
2023-02-09T07:37:35.387Z,-1.22
2023-02-09T07:38:35.464Z,-1.25
2023-02-09T07:39:35.373Z,-1.12
2023-02-09T07:40:35.362Z,-1.17
2023-02-09T07:41:35.334Z,-1.25
2023-02-09T07:42:35.338Z,-1.37
2023-02-09T07:43:35.320Z,-1.28
2023-02-09T07:44:35.302Z,-1.20
2023-02-09T07:45:35.303Z,-1.10
2023-02-09T07:46:35.347Z,-1.10
2023-02-09T07:47:35.283Z,-1.16
2023-02-09T07:48:35.254Z,-1.16
2023-02-09T07:49:35.250Z,-1.09
2023-02-09T07:50:35.230Z,-1.12
2023-02-09T07:51:35.251Z,-1.15
2023-02-09T07:52:35.238Z,-0.95
2023-02-09T07:53:35.200Z,-1.04
2023-02-09T07:54:35.188Z,-1.01
2023-02-09T07:55:35.203Z,-1.02
2023-02-09T07:56:35.189Z,-0.94
2023-02-09T07:57:35.158Z,-0.91
2023-02-09T07:58:35.167Z,-0.86
2023-02-09T07:59:35.139Z,-0.73
2023-02-09T08:00:35.126Z,-0.76
2023-02-09T08:01:35.244Z,-0.67
2023-02-09T08:02:35.101Z,-0.55
2023-02-09T08:03:35.114Z,-0.55
2023-02-09T08:04:35.097Z,-0.43
2023-02-09T08:05:35.069Z,-0.34
2023-02-09T08:06:41.891Z,-0.37
2023-02-09T08:07:36.052Z,-0.22
2023-02-09T08:08:35.056Z,0.08
2023-02-09T08:09:35.482Z,-0.04
2023-02-09T08:10:35.041Z,0.02
2023-02-09T08:11:35.015Z,0.20
2023-02-09T08:12:35.032Z,0.29
2023-02-09T08:13:34.989Z,0.44
2023-02-09T08:14:34.974Z,0.51
2023-02-09T08:15:34.966Z,0.66
2023-02-09T08:16:35.051Z,0.78
2023-02-09T08:17:34.967Z,0.91
2023-02-09T08:18:34.949Z,1.04
2023-02-09T08:19:34.932Z,1.06
2023-02-09T08:20:34.920Z,1.06
2023-02-09T08:21:34.928Z,1.12
2023-02-09T08:22:34.910Z,1.06
2023-02-09T08:23:34.897Z,1.15
2023-02-09T08:24:34.872Z,1.06
2023-02-09T08:25:34.888Z,0.97
2023-02-09T08:26:34.851Z,1.09
2023-02-09T08:27:34.839Z,1.22
2023-02-09T08:28:43.685Z,1.32
2023-02-09T08:29:35.837Z,1.34
2023-02-09T08:30:34.808Z,1.24
2023-02-09T08:31:34.931Z,1.29
2023-02-09T08:32:34.824Z,1.20
2023-02-09T08:33:34.797Z,1.30
2023-02-09T08:34:34.783Z,1.48
2023-02-09T08:35:34.771Z,1.30
2023-02-09T08:36:34.738Z,1.47
2023-02-09T08:37:34.735Z,1.48
2023-02-09T08:38:34.725Z,1.76
2023-02-09T08:39:34.713Z,1.73
2023-02-09T08:40:34.731Z,1.86
2023-02-09T08:41:34.687Z,2.12
2023-02-09T08:42:34.701Z,2.28
2023-02-09T08:43:34.668Z,2.06
2023-02-09T08:44:34.661Z,1.95
2023-02-09T08:45:34.750Z,1.93
2023-02-09T08:46:34.816Z,1.91
2023-02-09T08:47:34.643Z,2.12
2023-02-09T08:48:35.824Z,2.00
2023-02-09T08:49:34.651Z,1.83
2023-02-09T08:50:34.594Z,1.88
2023-02-09T08:51:34.597Z,2.10
2023-02-09T08:52:34.588Z,2.17
2023-02-09T08:53:34.568Z,2.23
2023-02-09T08:54:34.564Z,2.43
2023-02-09T08:55:34.564Z,2.31
2023-02-09T08:56:34.546Z,2.36
2023-02-09T08:57:43.588Z,2.39
2023-02-09T08:58:34.555Z,2.42
2023-02-09T08:59:34.523Z,2.46
2023-02-09T09:00:34.488Z,2.38
2023-02-09T09:01:34.625Z,2.35
2023-02-09T09:02:34.502Z,2.38
2023-02-09T09:03:34.490Z,2.17
2023-02-09T09:04:34.502Z,2.09
2023-02-09T09:05:34.479Z,2.24
2023-02-09T09:06:34.451Z,2.39
2023-02-09T09:07:34.426Z,2.53
2023-02-09T09:08:34.420Z,2.45
2023-02-09T09:09:34.400Z,2.38
2023-02-09T09:10:34.417Z,2.45
2023-02-09T09:11:34.409Z,2.27
2023-02-09T09:12:34.358Z,2.35
2023-02-09T09:13:34.351Z,2.49
2023-02-09T09:14:34.337Z,2.34
2023-02-09T09:15:34.342Z,2.59
2023-02-09T09:16:34.338Z,2.72
2023-02-09T09:17:34.345Z,2.93
2023-02-09T09:18:34.299Z,2.92
2023-02-09T09:19:34.285Z,2.93
2023-02-09T09:20:34.292Z,2.95
2023-02-09T09:21:34.281Z,3.17
2023-02-09T09:22:34.288Z,3.21
2023-02-09T09:23:34.244Z,3.36
2023-02-09T09:24:34.229Z,3.40
2023-02-09T09:25:34.221Z,3.52
2023-02-09T09:26:34.208Z,3.43
2023-02-09T09:27:34.217Z,3.61
2023-02-09T09:28:34.243Z,3.86
2023-02-09T09:29:34.178Z,4.08
2023-02-09T09:30:34.181Z,4.02
2023-02-09T09:31:34.360Z,3.90
2023-02-09T09:32:34.356Z,3.54
2023-02-09T09:33:34.149Z,3.24
2023-02-09T09:34:34.168Z,3.26
2023-02-09T09:35:34.114Z,3.39
2023-02-09T09:36:34.108Z,3.35
2023-02-09T09:37:34.143Z,3.23
2023-02-09T09:38:34.085Z,3.29
2023-02-09T09:39:34.082Z,3.36
2023-02-09T09:40:34.093Z,3.54
2023-02-09T09:41:34.064Z,3.65
2023-02-09T09:42:34.036Z,3.60
2023-02-09T09:43:34.033Z,3.72
2023-02-09T09:44:34.012Z,3.65
2023-02-09T09:45:34.024Z,3.57
2023-02-09T09:46:34.051Z,3.51
2023-02-09T09:47:34.008Z,3.68
2023-02-09T09:48:33.975Z,3.79
2023-02-09T09:49:33.962Z,3.98
2023-02-09T09:50:33.970Z,4.04
2023-02-09T09:51:33.946Z,4.29
2023-02-09T09:52:33.945Z,4.32
2023-02-09T09:53:34.019Z,4.42
2023-02-09T09:54:33.907Z,4.16
2023-02-09T09:55:33.919Z,4.42
2023-02-09T09:56:33.880Z,4.29
2023-02-09T09:57:33.886Z,4.27
2023-02-09T09:58:33.873Z,4.44
2023-02-09T09:59:33.875Z,4.69
2023-02-09T10:00:33.847Z,4.92
2023-02-09T10:01:33.947Z,4.67
2023-02-09T10:02:33.827Z,4.72
2023-02-09T10:03:33.822Z,4.80
2023-02-09T10:04:33.837Z,5.00
2023-02-09T10:05:33.785Z,5.03
2023-02-09T10:06:33.809Z,5.06
2023-02-09T10:07:33.765Z,4.84
2023-02-09T10:08:33.756Z,4.65
2023-02-09T10:09:33.773Z,4.59
2023-02-09T10:10:33.770Z,4.44
2023-02-09T10:11:33.722Z,4.27
2023-02-09T10:12:33.718Z,4.14
2023-02-09T10:13:33.701Z,4.26
2023-02-09T10:14:33.710Z,4.23
2023-02-09T10:15:33.678Z,4.27
2023-02-09T10:16:33.709Z,4.41
2023-02-09T10:17:33.673Z,4.48
2023-02-09T10:18:33.653Z,4.47
2023-02-09T10:19:33.650Z,4.59
2023-02-09T10:20:33.629Z,4.44
2023-02-09T10:21:33.626Z,4.32
2023-02-09T10:22:33.647Z,4.34
2023-02-09T10:23:33.593Z,4.59
2023-02-09T10:24:33.608Z,4.67
2023-02-09T10:25:33.595Z,4.59
2023-02-09T10:26:33.592Z,4.63
2023-02-09T10:27:33.553Z,4.78
2023-02-09T10:28:33.645Z,5.10
2023-02-09T10:29:33.543Z,5.21
2023-02-09T10:30:33.555Z,5.18
2023-02-09T10:31:33.637Z,5.35
2023-02-09T10:32:33.500Z,5.38
2023-02-09T10:33:33.479Z,5.40
2023-02-09T10:34:33.490Z,5.36
2023-02-09T10:35:33.452Z,5.20
2023-02-09T10:36:33.462Z,5.18
2023-02-09T10:37:33.467Z,5.22
2023-02-09T10:38:33.714Z,5.24
2023-02-09T10:39:33.431Z,5.31
2023-02-09T10:40:33.434Z,5.49
2023-02-09T10:41:33.412Z,5.58
2023-02-09T10:42:33.395Z,5.48
2023-02-09T10:43:33.382Z,5.40
2023-02-09T10:44:33.359Z,5.15
2023-02-09T10:45:33.382Z,5.13
2023-02-09T10:46:33.400Z,5.17
2023-02-09T10:47:33.363Z,4.67
2023-02-09T10:48:33.316Z,4.60
2023-02-09T10:49:33.307Z,4.66
2023-02-09T10:50:33.296Z,4.92
2023-02-09T10:51:33.297Z,5.02
2023-02-09T10:52:33.297Z,5.18
2023-02-09T10:53:33.257Z,5.30
2023-02-09T10:54:33.262Z,5.43
2023-02-09T10:55:33.259Z,5.25
2023-02-09T10:56:33.254Z,5.13
2023-02-09T10:57:33.247Z,4.77
2023-02-09T10:58:33.245Z,4.55
2023-02-09T10:59:33.198Z,4.62
2023-02-09T11:00:33.190Z,4.51
2023-02-09T11:01:33.187Z,4.65
2023-02-09T11:02:33.170Z,4.82
2023-02-09T11:03:33.153Z,5.00
2023-02-09T11:04:33.253Z,5.07
2023-02-09T11:05:33.140Z,5.17
2023-02-09T11:06:33.122Z,5.27
2023-02-09T11:07:33.121Z,5.36
2023-02-09T11:08:33.132Z,5.33
2023-02-09T11:09:33.102Z,5.31
2023-02-09T11:10:33.100Z,5.07
2023-02-09T11:11:33.072Z,5.02
2023-02-09T11:12:33.066Z,4.73
2023-02-09T11:13:33.113Z,4.69
2023-02-09T11:14:33.041Z,4.73
2023-02-09T11:15:33.070Z,4.82
2023-02-09T11:16:33.070Z,4.85
2023-02-09T11:17:33.029Z,4.78
2023-02-09T11:18:32.998Z,4.62
2023-02-09T11:19:32.980Z,4.52
2023-02-09T11:20:32.970Z,4.63
2023-02-09T11:21:32.958Z,4.66
2023-02-09T11:22:32.987Z,4.65
2023-02-09T11:23:32.939Z,4.85
2023-02-09T11:24:32.948Z,5.00
2023-02-09T11:25:32.916Z,4.94
2023-02-09T11:26:32.908Z,5.02
2023-02-09T11:27:32.911Z,4.99
2023-02-09T11:28:33.075Z,5.09
2023-02-09T11:29:32.898Z,5.15
2023-02-09T11:30:32.905Z,5.13
2023-02-09T11:31:32.953Z,5.06
2023-02-09T11:32:32.848Z,5.10
2023-02-09T11:33:32.840Z,4.89
2023-02-09T11:34:32.867Z,4.89
2023-02-09T11:35:32.813Z,4.96
2023-02-09T11:36:32.805Z,4.88
2023-02-09T11:37:32.800Z,4.75
2023-02-09T11:38:32.794Z,4.73
2023-02-09T11:39:32.768Z,4.69
2023-02-09T11:40:32.781Z,4.66
2023-02-09T11:41:32.744Z,4.70
2023-02-09T11:42:32.751Z,4.80
2023-02-09T11:43:32.721Z,4.72
2023-02-09T11:44:32.742Z,4.63
2023-02-09T11:45:32.722Z,4.69
2023-02-09T11:46:32.764Z,4.66
2023-02-09T11:47:32.676Z,4.67
2023-02-09T11:48:32.693Z,4.72
2023-02-09T11:49:32.656Z,4.75
2023-02-09T11:50:32.662Z,4.72
2023-02-09T11:51:32.639Z,4.78
2023-02-09T11:52:32.643Z,4.88
2023-02-09T11:53:32.635Z,5.00
2023-02-09T11:54:32.627Z,5.06
2023-02-09T11:55:32.588Z,5.02
2023-02-09T11:56:32.597Z,4.97
2023-02-09T11:57:32.591Z,5.07
2023-02-09T11:58:32.592Z,4.99
2023-02-09T11:59:32.549Z,5.00
2023-02-09T12:00:33.921Z,4.91
2023-02-09T12:01:32.567Z,4.94
2023-02-09T12:02:32.559Z,4.99
2023-02-09T12:03:32.506Z,4.97
2023-02-09T12:04:32.510Z,5.02
2023-02-09T12:05:32.482Z,5.00
2023-02-09T12:06:32.512Z,4.88
2023-02-09T12:07:33.174Z,4.85
2023-02-09T12:08:32.468Z,4.85
2023-02-09T12:09:32.438Z,4.69
2023-02-09T12:10:32.442Z,4.69
2023-02-09T12:11:32.421Z,4.70
2023-02-09T12:12:32.412Z,4.82
2023-02-09T12:13:32.407Z,4.82
2023-02-09T12:14:32.425Z,4.85
2023-02-09T12:15:32.375Z,4.82
2023-02-09T12:16:32.419Z,4.91
2023-02-09T12:17:32.368Z,4.99
2023-02-09T12:18:32.383Z,4.97
2023-02-09T12:19:32.332Z,5.03
2023-02-09T12:20:32.341Z,5.03
2023-02-09T12:21:32.335Z,5.07
2023-02-09T12:22:32.299Z,5.02
2023-02-09T12:23:32.290Z,5.18
2023-02-09T12:24:32.299Z,5.17
2023-02-09T12:25:32.281Z,5.18
2023-02-09T12:26:32.266Z,5.21
2023-02-09T12:27:32.242Z,5.31
2023-02-09T12:28:32.317Z,5.21
2023-02-09T12:29:32.226Z,5.22
2023-02-09T12:30:32.263Z,5.17
2023-02-09T12:31:32.373Z,5.21
2023-02-09T12:32:32.204Z,5.18
2023-02-09T12:33:32.217Z,5.24
2023-02-09T12:34:32.169Z,5.28
2023-02-09T12:35:32.189Z,5.17
2023-02-09T12:36:32.154Z,5.22
2023-02-09T12:37:32.136Z,5.24
2023-02-09T12:38:32.148Z,5.22
2023-02-09T12:39:32.119Z,5.27
2023-02-09T12:40:32.116Z,5.22
2023-02-09T12:41:32.102Z,5.33
2023-02-09T12:42:32.107Z,5.36
2023-02-09T12:43:32.072Z,5.42
2023-02-09T12:44:32.073Z,5.39
2023-02-09T12:45:32.181Z,5.38
2023-02-09T12:46:32.118Z,5.43
2023-02-09T12:47:32.043Z,5.49
2023-02-09T12:48:32.022Z,5.57
2023-02-09T12:49:32.047Z,5.51
2023-02-09T12:50:32.003Z,5.54
2023-02-09T12:51:31.984Z,5.61
2023-02-09T12:52:31.987Z,5.65
2023-02-09T12:53:31.980Z,5.72
2023-02-09T12:54:31.949Z,5.75
2023-02-09T12:55:32.014Z,5.67
2023-02-09T12:56:31.941Z,5.54
2023-02-09T12:57:31.926Z,5.49
2023-02-09T12:58:31.909Z,5.48
2023-02-09T12:59:31.919Z,5.54
2023-02-09T13:00:31.891Z,5.51
2023-02-09T13:01:31.918Z,5.48
2023-02-09T13:02:31.861Z,5.46
2023-02-09T13:03:31.887Z,5.49
2023-02-09T13:04:31.846Z,5.56
2023-02-09T13:05:31.973Z,5.61
2023-02-09T13:06:31.829Z,5.58
2023-02-09T13:07:31.821Z,5.63
2023-02-09T13:08:31.807Z,5.64
2023-02-09T13:09:31.795Z,5.67
2023-02-09T13:10:31.847Z,5.67
2023-02-09T13:11:31.773Z,5.67
2023-02-09T13:12:31.759Z,5.71
2023-02-09T13:13:31.745Z,5.79